createdAt,value
2018-02-22T00:00:26.707Z,994.11
2018-02-22T00:01:26.936Z,994.11
2018-02-22T00:02:27.166Z,994.12
2018-02-22T00:03:27.397Z,994.08
2018-02-22T00:04:27.631Z,994.05
2018-02-22T00:05:27.849Z,994.03
2018-02-22T00:06:28.073Z,994.03
2018-02-22T00:07:28.309Z,994.03
2018-02-22T00:08:28.526Z,994.01
2018-02-22T00:09:28.769Z,993.97
2018-02-22T00:10:28.993Z,994.02
2018-02-22T00:11:29.255Z,993.96
2018-02-22T00:12:29.461Z,993.97
2018-02-22T00:13:29.685Z,993.94
2018-02-22T00:14:29.917Z,993.96
2018-02-22T00:15:30.148Z,993.91
2018-02-22T00:16:30.377Z,993.90
2018-02-22T00:17:30.606Z,993.92
2018-02-22T00:18:31.697Z,993.92
2018-02-22T00:19:31.046Z,993.87
2018-02-22T00:20:31.275Z,993.92
2018-02-22T00:21:31.505Z,993.89
2018-02-22T00:22:31.736Z,993.88
2018-02-22T00:23:31.970Z,993.90
2018-02-22T00:24:32.186Z,993.93
2018-02-22T00:25:32.415Z,993.89
2018-02-22T00:26:32.648Z,993.90
2018-02-22T00:27:32.882Z,993.91
2018-02-22T00:28:33.142Z,993.91
2018-02-22T00:29:33.373Z,993.94
2018-02-22T00:30:33.603Z,993.91
2018-02-22T00:31:33.843Z,993.92
2018-02-22T00:32:34.064Z,993.93
2018-02-22T00:33:34.294Z,993.90
2018-02-22T00:34:34.526Z,993.91
2018-02-22T00:35:34.755Z,993.90
2018-02-22T00:36:34.990Z,993.88
2018-02-22T00:37:35.217Z,993.86
2018-02-22T00:38:35.446Z,993.91
2018-02-22T00:39:35.675Z,993.89
2018-02-22T00:40:35.905Z,993.90
2018-02-22T00:41:36.136Z,993.84
2018-02-22T00:42:36.366Z,993.85
2018-02-22T00:43:36.597Z,993.85
2018-02-22T00:44:36.828Z,993.83
2018-02-22T00:45:37.057Z,993.84
2018-02-22T00:46:37.287Z,993.82
2018-02-22T00:47:37.523Z,993.84
2018-02-22T00:48:37.754Z,993.86
2018-02-22T00:49:37.990Z,993.85
2018-02-22T00:50:38.706Z,993.87
2018-02-22T00:51:38.431Z,993.84
2018-02-22T00:52:38.658Z,993.87
2018-02-22T00:53:38.889Z,993.83
2018-02-22T00:54:39.117Z,993.87
2018-02-22T00:55:39.350Z,993.81
2018-02-22T00:56:39.585Z,993.84
2018-02-22T00:57:39.804Z,993.84
2018-02-22T00:58:40.040Z,993.83
2018-02-22T00:59:40.268Z,993.83
2018-02-22T01:00:40.509Z,993.84
2018-02-22T01:01:40.722Z,993.83
2018-02-22T01:02:40.952Z,993.81
2018-02-22T01:03:41.710Z,993.82
2018-02-22T01:04:41.409Z,993.82
2018-02-22T01:05:41.642Z,993.81
2018-02-22T01:06:41.870Z,993.80
2018-02-22T01:07:42.107Z,993.77
2018-02-22T01:08:42.327Z,993.76
2018-02-22T01:09:42.546Z,993.76
2018-02-22T01:10:42.771Z,993.76
2018-02-22T01:11:43.000Z,993.77
2018-02-22T01:12:43.226Z,993.76
2018-02-22T01:13:43.457Z,993.74
2018-02-22T01:14:43.688Z,993.75
2018-02-22T01:15:43.918Z,993.73
2018-02-22T01:16:44.148Z,993.78
2018-02-22T01:17:44.378Z,993.73
2018-02-22T01:18:44.608Z,993.78
2018-02-22T01:19:44.837Z,993.76
2018-02-22T01:20:45.068Z,993.73
2018-02-22T01:21:45.303Z,993.75
2018-02-22T01:22:45.527Z,993.72
2018-02-22T01:23:45.760Z,993.73
2018-02-22T01:24:45.992Z,993.71
2018-02-22T01:25:46.221Z,993.74
2018-02-22T01:26:46.452Z,993.76
2018-02-22T01:27:46.683Z,993.75
2018-02-22T01:28:46.908Z,993.77
2018-02-22T01:29:47.140Z,993.77
2018-02-22T01:30:47.375Z,993.76
2018-02-22T01:31:47.591Z,993.76
2018-02-22T01:32:47.814Z,993.80
2018-02-22T01:33:48.099Z,993.77
2018-02-22T01:34:48.289Z,993.80
2018-02-22T01:35:48.518Z,993.80
2018-02-22T01:36:49.720Z,993.80
2018-02-22T01:37:48.970Z,993.81
2018-02-22T01:38:49.203Z,993.76
2018-02-22T01:39:49.435Z,993.77
2018-02-22T01:40:49.664Z,993.76
2018-02-22T01:41:49.894Z,993.77
2018-02-22T01:42:50.119Z,993.78
2018-02-22T01:43:50.355Z,993.78
2018-02-22T01:44:50.575Z,993.79
2018-02-22T01:45:50.814Z,993.74
2018-02-22T01:46:51.028Z,993.81
2018-02-22T01:47:51.277Z,993.79
2018-02-22T01:48:51.506Z,993.78
2018-02-22T01:49:51.736Z,993.78
2018-02-22T01:50:52.733Z,993.83
2018-02-22T01:51:52.302Z,993.79
2018-02-22T01:52:52.533Z,993.78
2018-02-22T01:53:52.762Z,993.81
2018-02-22T01:54:52.997Z,993.75
2018-02-22T01:55:53.225Z,993.74
2018-02-22T01:56:53.451Z,993.78
2018-02-22T01:57:53.672Z,993.77
2018-02-22T01:58:53.902Z,993.78
2018-02-22T01:59:54.143Z,993.77
2018-02-22T02:00:54.358Z,993.77
2018-02-22T02:01:54.588Z,993.76
2018-02-22T02:02:54.818Z,993.76
2018-02-22T02:03:55.050Z,993.76
2018-02-22T02:04:55.278Z,993.79
2018-02-22T02:05:55.508Z,993.76
2018-02-22T02:06:55.741Z,993.78
2018-02-22T02:07:55.968Z,993.70
2018-02-22T02:08:56.207Z,993.71
2018-02-22T02:09:56.444Z,993.71
2018-02-22T02:10:56.657Z,993.69
2018-02-22T02:11:56.888Z,993.70
2018-02-22T02:12:57.118Z,993.69
2018-02-22T02:13:57.348Z,993.70
2018-02-22T02:14:57.579Z,993.67
2018-02-22T02:15:57.809Z,993.67
2018-02-22T02:16:58.038Z,993.63
2018-02-22T02:17:58.269Z,993.62
2018-02-22T02:18:58.499Z,993.62
2018-02-22T02:19:58.733Z,993.61
2018-02-22T02:20:58.962Z,993.59
2018-02-22T02:21:59.192Z,993.60
2018-02-22T02:22:59.422Z,993.60
2018-02-22T02:23:59.645Z,993.59
2018-02-22T02:24:59.865Z,993.61
2018-02-22T02:26:00.096Z,993.59
2018-02-22T02:27:01.240Z,993.54
2018-02-22T02:28:00.583Z,993.59
2018-02-22T02:29:00.808Z,993.51
2018-02-22T02:30:01.037Z,993.53
2018-02-22T02:31:01.272Z,993.49
2018-02-22T02:32:01.493Z,993.50
2018-02-22T02:33:01.725Z,993.51
2018-02-22T02:34:01.953Z,993.48
2018-02-22T02:35:02.186Z,993.52
2018-02-22T02:36:02.414Z,993.51
2018-02-22T02:37:02.645Z,993.47
2018-02-22T02:40:34.633Z,993.52
2018-02-22T02:41:34.863Z,993.48
2018-02-22T02:42:35.093Z,993.46
2018-02-22T02:43:35.323Z,993.49
2018-02-22T02:44:35.553Z,993.49
2018-02-22T02:45:35.783Z,993.48
2018-02-22T02:46:36.013Z,993.48
2018-02-22T02:47:36.242Z,993.45
2018-02-22T02:48:36.472Z,993.47
2018-02-22T02:49:36.707Z,993.46
2018-02-22T02:50:36.931Z,993.43
2018-02-22T02:51:37.161Z,993.43
2018-02-22T02:52:37.393Z,993.45
2018-02-22T02:53:37.619Z,993.48
2018-02-22T02:54:38.660Z,993.45
2018-02-22T02:55:38.078Z,993.42
2018-02-22T02:56:38.307Z,993.43
2018-02-22T02:57:38.542Z,993.45
2018-02-22T02:58:38.767Z,993.43
2018-02-22T02:59:39.001Z,993.40
2018-02-22T03:00:39.232Z,993.43
2018-02-22T03:01:39.456Z,993.46
2018-02-22T03:02:39.686Z,993.44
2018-02-22T03:03:39.927Z,993.46
2018-02-22T03:04:40.145Z,993.43
2018-02-22T03:05:40.376Z,993.44
2018-02-22T03:06:40.606Z,993.47
2018-02-22T03:07:40.834Z,993.45
2018-02-22T03:08:41.064Z,993.45
2018-02-22T03:09:41.293Z,993.43
2018-02-22T03:10:41.523Z,993.49
2018-02-22T03:11:41.765Z,993.43
2018-02-22T03:12:41.981Z,993.45
2018-02-22T03:13:42.212Z,993.43
2018-02-22T03:14:42.441Z,993.45
2018-02-22T03:15:42.672Z,993.47
2018-02-22T03:16:42.901Z,993.51
2018-02-22T03:17:43.131Z,993.48
2018-02-22T03:18:43.361Z,993.47
2018-02-22T03:19:43.591Z,993.52
2018-02-22T03:20:43.821Z,993.52
2018-02-22T03:21:44.051Z,993.52
2018-02-22T03:22:44.287Z,993.52
2018-02-22T03:23:44.505Z,993.52
2018-02-22T03:24:44.736Z,993.48
2018-02-22T03:25:44.967Z,993.47
2018-02-22T03:26:45.196Z,993.45
2018-02-22T03:27:45.418Z,993.48
2018-02-22T03:28:45.648Z,993.49
2018-02-22T03:29:45.879Z,993.45
2018-02-22T03:30:46.108Z,993.46
2018-02-22T03:31:46.342Z,993.44
2018-02-22T03:32:46.568Z,993.47
2018-02-22T03:33:46.797Z,993.47
2018-02-22T03:34:47.025Z,993.44
2018-02-22T03:35:47.255Z,993.46
2018-02-22T03:36:47.484Z,993.45
2018-02-22T03:37:47.719Z,993.43
2018-02-22T03:38:47.944Z,993.46
2018-02-22T03:39:48.164Z,993.46
2018-02-22T03:40:48.395Z,993.47
2018-02-22T03:41:48.625Z,993.41
2018-02-22T03:42:48.855Z,993.42
2018-02-22T03:43:49.085Z,993.40
2018-02-22T03:44:50.270Z,993.41
2018-02-22T03:45:49.567Z,993.43
2018-02-22T03:46:49.795Z,993.41
2018-02-22T03:47:50.025Z,993.39
2018-02-22T03:48:50.255Z,993.40
2018-02-22T03:49:50.487Z,993.37
2018-02-22T03:50:50.714Z,993.40
2018-02-22T03:51:50.945Z,993.39
2018-02-22T03:52:51.178Z,993.35
2018-02-22T03:53:51.412Z,993.40
2018-02-22T03:54:51.643Z,993.40
2018-02-22T03:55:51.873Z,993.40
2018-02-22T03:56:52.114Z,993.42
2018-02-22T03:57:52.332Z,993.38
2018-02-22T03:58:52.562Z,993.42
2018-02-22T03:59:52.798Z,993.38
2018-02-22T04:00:53.018Z,993.39
2018-02-22T04:01:53.250Z,993.40
2018-02-22T04:02:53.469Z,993.39
2018-02-22T04:03:53.704Z,993.43
2018-02-22T04:04:53.931Z,993.43
2018-02-22T04:05:54.159Z,993.43
2018-02-22T04:06:54.393Z,993.44
2018-02-22T04:07:54.616Z,993.45
2018-02-22T04:08:54.847Z,993.46
2018-02-22T04:09:55.074Z,993.50
2018-02-22T04:10:55.303Z,993.51
2018-02-22T04:11:55.533Z,993.53
2018-02-22T04:12:55.757Z,993.49
2018-02-22T04:13:55.978Z,993.51
2018-02-22T04:14:56.200Z,993.53
2018-02-22T04:15:56.437Z,993.51
2018-02-22T04:16:56.668Z,993.56
2018-02-22T04:17:56.897Z,993.50
2018-02-22T04:18:57.128Z,993.50
2018-02-22T04:19:57.358Z,993.52
2018-02-22T04:20:57.588Z,993.52
2018-02-22T04:21:57.818Z,993.52
2018-02-22T04:22:58.048Z,993.51
2018-02-22T04:23:58.277Z,993.53
2018-02-22T04:24:58.509Z,993.50
2018-02-22T04:25:58.737Z,993.46
2018-02-22T04:26:58.967Z,993.49
2018-02-22T04:27:59.205Z,993.53
2018-02-22T04:28:59.429Z,993.52
2018-02-22T04:29:59.661Z,993.49
2018-02-22T04:30:59.888Z,993.52
2018-02-22T04:32:00.122Z,993.57
2018-02-22T04:33:00.348Z,993.55
2018-02-22T04:34:00.583Z,993.56
2018-02-22T04:35:00.805Z,993.59
2018-02-22T04:36:01.038Z,993.57
2018-02-22T04:37:01.268Z,993.57
2018-02-22T04:38:02.189Z,993.55
2018-02-22T04:39:01.696Z,993.54
2018-02-22T04:40:01.908Z,993.57
2018-02-22T04:41:02.154Z,993.57
2018-02-22T04:42:02.384Z,993.56
2018-02-22T04:43:02.614Z,993.59
2018-02-22T04:44:02.844Z,993.62
2018-02-22T04:45:03.075Z,993.62
2018-02-22T04:46:03.305Z,993.59
2018-02-22T04:47:03.533Z,993.59
2018-02-22T04:48:03.764Z,993.56
2018-02-22T04:49:03.994Z,993.54
2018-02-22T04:50:04.224Z,993.57
2018-02-22T04:51:04.455Z,993.59
2018-02-22T04:52:04.684Z,993.63
2018-02-22T04:53:04.914Z,993.61
2018-02-22T04:54:05.144Z,993.59
2018-02-22T04:55:05.374Z,993.56
2018-02-22T04:56:05.603Z,993.59
2018-02-22T04:57:05.832Z,993.53
2018-02-22T04:58:06.062Z,993.55
2018-02-22T04:59:06.291Z,993.55
2018-02-22T05:00:06.522Z,993.49
2018-02-22T05:01:06.751Z,993.50
2018-02-22T05:02:06.981Z,993.50
2018-02-22T05:03:07.211Z,993.58
2018-02-22T05:04:07.433Z,993.52
2018-02-22T05:05:07.659Z,993.53
2018-02-22T05:06:07.890Z,993.53
2018-02-22T05:07:08.120Z,993.49
2018-02-22T05:08:08.337Z,993.50
2018-02-22T05:09:08.569Z,993.47
2018-02-22T05:10:08.809Z,993.45
2018-02-22T05:11:09.022Z,993.48
2018-02-22T05:12:09.252Z,993.46
2018-02-22T05:13:09.468Z,993.45
2018-02-22T05:14:10.253Z,993.41
2018-02-22T05:15:09.931Z,993.46
2018-02-22T05:16:10.147Z,993.48
2018-02-22T05:17:10.377Z,993.48
2018-02-22T05:18:10.607Z,993.47
2018-02-22T05:19:10.837Z,993.50
2018-02-22T05:20:11.066Z,993.48
2018-02-22T05:21:11.296Z,993.50
2018-02-22T05:22:11.527Z,993.51
2018-02-22T05:23:11.763Z,993.47
2018-02-22T05:24:11.993Z,993.50
2018-02-22T05:25:12.223Z,993.49
2018-02-22T05:26:12.455Z,993.48
2018-02-22T05:27:12.683Z,993.46
2018-02-22T05:28:12.913Z,993.43
2018-02-22T05:29:13.147Z,993.45
2018-02-22T05:30:13.373Z,993.41
2018-02-22T05:31:13.604Z,993.41
2018-02-22T05:32:13.843Z,993.43
2018-02-22T05:33:14.072Z,993.45
2018-02-22T05:34:14.329Z,993.46
2018-02-22T05:35:14.534Z,993.44
2018-02-22T05:36:14.763Z,993.42
2018-02-22T05:37:14.998Z,993.46
2018-02-22T05:38:15.218Z,993.44
2018-02-22T05:39:15.449Z,993.43
2018-02-22T05:40:15.679Z,993.45
2018-02-22T05:41:15.908Z,993.41
2018-02-22T05:42:16.138Z,993.44
2018-02-22T05:43:16.369Z,993.46
2018-02-22T05:44:16.599Z,993.44
2018-02-22T05:45:16.835Z,993.44
2018-02-22T05:46:17.056Z,993.46
2018-02-22T05:47:17.290Z,993.46
2018-02-22T05:48:17.516Z,993.49
2018-02-22T05:49:17.756Z,993.49
2018-02-22T05:50:17.974Z,993.53
2018-02-22T05:51:18.205Z,993.52
2018-02-22T05:52:18.435Z,993.51
2018-02-22T05:53:18.663Z,993.58
2018-02-22T05:54:18.896Z,993.61
2018-02-22T05:55:19.136Z,993.61
2018-02-22T05:56:19.358Z,993.63
2018-02-22T05:57:19.592Z,993.66
2018-02-22T05:58:19.824Z,993.61
2018-02-22T05:59:20.038Z,993.61
2018-02-22T06:00:20.268Z,993.61
2018-02-22T06:01:20.499Z,993.62
2018-02-22T06:02:20.728Z,993.60
2018-02-22T06:03:20.959Z,993.60
2018-02-22T06:04:21.189Z,993.55
2018-02-22T06:05:21.418Z,993.61
2018-02-22T06:06:21.649Z,993.60
2018-02-22T06:07:21.880Z,993.56
2018-02-22T06:08:22.111Z,993.58
2018-02-22T06:09:22.338Z,993.59
2018-02-22T06:10:22.568Z,993.60
2018-02-22T06:11:22.797Z,993.58
2018-02-22T06:12:23.025Z,993.58
2018-02-22T06:13:23.249Z,993.59
2018-02-22T06:14:23.482Z,993.58
2018-02-22T06:15:23.709Z,993.59
2018-02-22T06:16:25.734Z,993.60
2018-02-22T06:17:24.368Z,993.57
2018-02-22T06:18:24.587Z,993.56
2018-02-22T06:19:24.818Z,993.61
2018-02-22T06:20:25.048Z,993.61
2018-02-22T06:21:25.277Z,993.65
2018-02-22T06:22:25.503Z,993.66
2018-02-22T06:23:25.726Z,993.66
2018-02-22T06:24:26.721Z,993.65
2018-02-22T06:25:26.169Z,993.64
2018-02-22T06:26:26.405Z,993.69
2018-02-22T06:27:26.622Z,993.69
2018-02-22T06:28:26.852Z,993.67
2018-02-22T06:29:27.081Z,993.68
2018-02-22T06:30:27.311Z,993.70
2018-02-22T06:31:27.541Z,993.71
2018-02-22T06:32:28.722Z,993.71
2018-02-22T06:33:27.994Z,993.70
2018-02-22T06:34:28.224Z,993.71
2018-02-22T06:35:28.479Z,993.74
2018-02-22T06:36:29.589Z,993.79
2018-02-22T06:37:28.944Z,993.76
2018-02-22T06:38:29.173Z,993.78
2018-02-22T06:39:29.405Z,993.82
2018-02-22T06:40:29.643Z,993.80
2018-02-22T06:41:29.860Z,993.81
2018-02-22T06:42:30.088Z,993.84
2018-02-22T06:43:30.316Z,993.83
2018-02-22T06:44:30.543Z,993.84
2018-02-22T06:45:30.779Z,993.85
2018-02-22T06:46:31.007Z,993.83
2018-02-22T06:47:31.237Z,993.87
2018-02-22T06:48:31.452Z,993.87
2018-02-22T06:49:31.694Z,993.88
2018-02-22T06:50:31.925Z,993.89
2018-02-22T06:51:32.154Z,993.89
2018-02-22T06:52:32.372Z,993.91
2018-02-22T06:56:35.706Z,993.90
2018-02-22T06:57:35.917Z,993.94
2018-02-22T06:58:36.147Z,993.87
2018-02-22T06:59:36.379Z,993.87
2018-02-22T07:00:36.606Z,993.88
2018-02-22T07:01:36.838Z,993.91
2018-02-22T07:02:37.057Z,993.92
2018-02-22T07:03:37.297Z,993.99
2018-02-22T07:04:37.522Z,993.92
2018-02-22T07:05:37.754Z,993.95
2018-02-22T07:06:37.985Z,993.91
2018-02-22T07:07:38.212Z,993.94
2018-02-22T07:08:38.436Z,993.95
2018-02-22T07:09:38.668Z,993.92
2018-02-22T07:10:38.895Z,993.93
2018-02-22T07:11:39.122Z,993.94
2018-02-22T07:12:39.346Z,993.96
2018-02-22T07:13:39.576Z,993.95
2018-02-22T07:14:39.811Z,993.93
2018-02-22T07:15:40.039Z,993.97
2018-02-22T07:16:40.270Z,994.03
2018-02-22T07:17:40.496Z,993.97
2018-02-22T07:18:40.727Z,994.01
2018-02-22T07:19:41.717Z,993.95
2018-02-22T07:20:41.182Z,993.99
2018-02-22T07:21:41.411Z,993.93
2018-02-22T07:22:41.645Z,993.94
2018-02-22T07:23:41.872Z,993.95
2018-02-22T07:24:42.106Z,993.92
2018-02-22T07:25:42.330Z,993.92
2018-02-22T07:26:42.564Z,993.92
2018-02-22T07:27:42.798Z,993.93
2018-02-22T07:28:43.022Z,993.94
2018-02-22T07:29:43.257Z,993.99
2018-02-22T07:30:43.479Z,993.91
2018-02-22T07:31:43.709Z,993.98
2018-02-22T07:32:43.941Z,993.96
2018-02-22T07:33:44.172Z,993.95
2018-02-22T07:34:44.417Z,993.96
2018-02-22T07:35:44.629Z,993.94
2018-02-22T07:36:44.855Z,993.93
2018-02-22T07:37:45.082Z,993.93
2018-02-22T07:38:45.312Z,993.94
2018-02-22T07:39:45.543Z,993.95
2018-02-22T07:40:45.774Z,993.96
2018-02-22T07:41:46.003Z,993.94
2018-02-22T07:42:46.224Z,994.00
2018-02-22T07:43:46.463Z,993.96
2018-02-22T07:44:46.691Z,993.98
2018-02-22T07:45:46.925Z,993.94
2018-02-22T07:46:47.138Z,993.99
2018-02-22T07:47:47.373Z,993.98
2018-02-22T07:48:47.603Z,993.99
2018-02-22T07:49:47.842Z,993.97
2018-02-22T07:50:48.067Z,993.98
2018-02-22T07:51:48.294Z,994.00
2018-02-22T07:52:48.522Z,994.00
2018-02-22T07:53:48.756Z,994.03
2018-02-22T07:54:48.977Z,994.04
2018-02-22T07:55:49.210Z,994.05
2018-02-22T07:56:49.438Z,994.04
2018-02-22T07:57:49.668Z,994.06
2018-02-22T07:58:49.898Z,994.08
2018-02-22T07:59:50.151Z,994.08
2018-02-22T08:00:50.360Z,994.09
2018-02-22T08:01:50.591Z,994.04
2018-02-22T08:02:50.821Z,994.07
2018-02-22T08:03:51.051Z,994.09
2018-02-22T08:04:51.281Z,994.09
2018-02-22T08:05:51.510Z,994.03
2018-02-22T08:06:51.740Z,994.11
2018-02-22T08:07:51.971Z,994.11
2018-02-22T08:08:52.201Z,994.12
2018-02-22T08:09:52.472Z,994.08
2018-02-22T08:10:52.659Z,994.12
2018-02-22T08:11:52.891Z,994.11
2018-02-22T08:12:53.120Z,994.14
2018-02-22T08:13:53.351Z,994.08
2018-02-22T08:14:53.581Z,994.07
2018-02-22T08:15:53.811Z,994.06
2018-02-22T08:16:54.043Z,994.06
2018-02-22T08:17:54.272Z,994.03
2018-02-22T08:18:54.503Z,994.02
2018-02-22T08:19:54.736Z,994.02
2018-02-22T08:20:54.963Z,994.02
2018-02-22T08:21:55.196Z,993.97
2018-02-22T08:22:55.416Z,993.99
2018-02-22T08:23:55.647Z,993.99
2018-02-22T08:24:55.878Z,993.94
2018-02-22T08:25:56.738Z,993.92
2018-02-22T08:26:56.534Z,993.94
2018-02-22T08:27:56.764Z,993.94
2018-02-22T08:28:56.995Z,993.90
2018-02-22T08:29:57.225Z,993.90
2018-02-22T08:30:57.454Z,993.90
2018-02-22T08:31:57.684Z,993.89
2018-02-22T08:32:57.915Z,993.85
2018-02-22T08:33:58.148Z,993.91
2018-02-22T08:34:58.379Z,993.91
2018-02-22T08:35:58.607Z,993.86
2018-02-22T08:36:58.837Z,993.93
2018-02-22T08:37:59.068Z,993.85
2018-02-22T08:38:59.296Z,993.86
2018-02-22T08:39:59.528Z,993.83
2018-02-22T08:40:59.758Z,993.88
2018-02-22T08:41:59.988Z,993.85
2018-02-22T08:43:00.219Z,993.83
2018-02-22T08:44:00.461Z,993.84
2018-02-22T08:45:00.676Z,993.84
2018-02-22T08:46:00.906Z,993.86
2018-02-22T08:47:01.135Z,993.89
2018-02-22T08:48:01.354Z,993.77
2018-02-22T08:49:01.579Z,993.81
2018-02-22T08:50:01.809Z,993.83
2018-02-22T08:51:02.039Z,993.84
2018-02-22T08:52:02.268Z,993.88
2018-02-22T08:53:02.497Z,993.87
2018-02-22T08:54:02.727Z,993.90
2018-02-22T08:55:02.968Z,993.87
2018-02-22T08:56:03.189Z,993.89
2018-02-22T08:57:03.447Z,993.85
2018-02-22T08:58:03.682Z,993.85
2018-02-22T08:59:03.908Z,993.96
2018-02-22T09:00:04.138Z,993.85
2018-02-22T09:01:04.367Z,993.90
2018-02-22T09:02:04.598Z,993.89
2018-02-22T09:03:04.825Z,993.83
2018-02-22T09:04:05.055Z,993.81
2018-02-22T09:05:05.285Z,993.83
2018-02-22T09:06:05.514Z,993.90
2018-02-22T09:07:05.744Z,993.88
2018-02-22T09:08:05.974Z,993.86
2018-02-22T09:09:06.204Z,993.88
2018-02-22T09:10:06.434Z,993.96
2018-02-22T09:11:06.665Z,993.91
2018-02-22T09:12:06.895Z,993.94
2018-02-22T09:13:07.125Z,993.94
2018-02-22T09:14:07.358Z,993.91
2018-02-22T09:15:07.587Z,993.98
2018-02-22T09:16:07.815Z,993.95
2018-02-22T09:17:08.050Z,993.97
2018-02-22T09:18:08.280Z,993.98
2018-02-22T09:19:08.508Z,993.98
2018-02-22T09:20:08.735Z,993.97
2018-02-22T09:21:08.963Z,994.00
2018-02-22T09:22:09.192Z,994.00
2018-02-22T09:23:09.422Z,994.01
2018-02-22T09:24:09.652Z,993.99
2018-02-22T09:25:09.882Z,994.08
2018-02-22T09:26:10.112Z,993.99
2018-02-22T09:27:10.355Z,993.97
2018-02-22T09:28:10.570Z,993.94
2018-02-22T09:29:10.820Z,993.91
2018-02-22T09:30:11.026Z,994.01
2018-02-22T09:31:11.259Z,994.02
2018-02-22T09:32:11.491Z,994.06
2018-02-22T09:33:11.710Z,993.95
2018-02-22T09:34:11.941Z,994.03
2018-02-22T09:35:12.171Z,993.99
2018-02-22T09:36:12.400Z,993.96
2018-02-22T09:37:12.631Z,994.03
2018-02-22T09:38:12.858Z,994.04
2018-02-22T09:39:13.098Z,994.03
2018-02-22T09:40:13.384Z,994.02
2018-02-22T09:41:13.556Z,993.97
2018-02-22T09:42:13.796Z,993.99
2018-02-22T09:43:14.014Z,994.00
2018-02-22T09:44:14.245Z,994.02
2018-02-22T09:45:14.474Z,994.00
2018-02-22T09:46:14.705Z,993.98
2018-02-22T09:47:14.935Z,994.03
2018-02-22T09:48:15.165Z,994.01
2018-02-22T09:49:15.397Z,994.00
2018-02-22T09:50:15.678Z,994.05
2018-02-22T09:51:15.854Z,994.01
2018-02-22T09:52:16.085Z,994.04
2018-02-22T09:53:16.313Z,994.04
2018-02-22T09:54:16.543Z,994.03
2018-02-22T09:55:16.778Z,994.05
2018-02-22T09:56:17.007Z,994.05
2018-02-22T09:57:17.230Z,994.02
2018-02-22T09:58:17.459Z,994.12
2018-02-22T09:59:17.691Z,994.19
2018-02-22T10:00:17.920Z,994.10
2018-02-22T10:01:18.151Z,994.08
2018-02-22T10:02:18.380Z,994.03
2018-02-22T10:03:18.611Z,994.07
2018-02-22T10:04:18.841Z,994.08
2018-02-22T10:05:19.071Z,994.07
2018-02-22T10:06:19.302Z,994.05
2018-02-22T10:07:19.532Z,994.06
2018-02-22T10:08:19.762Z,994.09
2018-02-22T10:09:19.993Z,994.16
2018-02-22T10:10:20.228Z,994.11
2018-02-22T10:11:20.448Z,994.06
2018-02-22T10:12:20.675Z,994.06
2018-02-22T10:13:20.909Z,994.05
2018-02-22T10:14:21.128Z,994.05
2018-02-22T10:15:21.359Z,994.00
2018-02-22T10:16:21.592Z,993.99
2018-02-22T10:17:22.134Z,994.11
2018-02-22T10:18:22.440Z,994.07
2018-02-22T10:19:22.463Z,994.06
2018-02-22T10:20:22.513Z,994.02
2018-02-22T10:21:22.742Z,994.07
2018-02-22T10:22:22.957Z,993.98
2018-02-22T10:23:23.187Z,993.96
2018-02-22T10:24:23.417Z,994.07
2018-02-22T10:25:23.648Z,994.05
2018-02-22T10:26:23.878Z,994.01
2018-02-22T10:27:24.109Z,994.00
2018-02-22T10:28:24.338Z,994.00
2018-02-22T10:29:24.574Z,993.99
2018-02-22T10:30:24.799Z,993.98
2018-02-22T10:31:25.030Z,993.91
2018-02-22T10:32:25.261Z,993.95
2018-02-22T10:33:25.498Z,993.93
2018-02-22T10:34:25.722Z,993.87
2018-02-22T10:35:25.952Z,993.92
2018-02-22T10:36:26.181Z,993.87
2018-02-22T10:37:26.412Z,993.89
2018-02-22T10:38:26.641Z,993.90
2018-02-22T10:39:26.871Z,993.92
2018-02-22T10:40:27.102Z,993.97
2018-02-22T10:41:27.333Z,993.88
2018-02-22T10:42:27.564Z,993.89
2018-02-22T10:43:27.798Z,993.84
2018-02-22T10:44:28.039Z,993.88
2018-02-22T10:45:28.257Z,993.85
2018-02-22T10:46:28.931Z,993.84
2018-02-22T10:47:28.939Z,993.85
2018-02-22T10:48:28.942Z,993.85
2018-02-22T10:49:29.534Z,993.90
2018-02-22T10:50:29.660Z,993.86
2018-02-22T10:51:29.634Z,993.86
2018-02-22T10:52:29.864Z,993.75
2018-02-22T10:53:30.102Z,993.97
2018-02-22T10:54:30.326Z,993.84
2018-02-22T10:55:30.562Z,993.89
2018-02-22T10:56:30.776Z,993.89
2018-02-22T10:57:31.006Z,993.92
2018-02-22T10:58:31.237Z,993.96
2018-02-22T10:59:31.468Z,993.82
2018-02-22T11:00:31.698Z,993.80
2018-02-22T11:01:31.930Z,993.77
2018-02-22T11:02:32.160Z,993.76
2018-02-22T11:03:32.390Z,993.78
2018-02-22T11:04:32.620Z,993.81
2018-02-22T11:05:32.849Z,993.75
2018-02-22T11:06:33.081Z,993.84
2018-02-22T11:07:33.310Z,993.81
2018-02-22T11:08:33.540Z,993.78
2018-02-22T11:09:33.774Z,993.77
2018-02-22T11:10:34.000Z,993.79
2018-02-22T11:11:34.229Z,993.74
2018-02-22T11:12:34.461Z,993.72
2018-02-22T11:13:34.693Z,993.62
2018-02-22T11:14:34.929Z,993.64
2018-02-22T11:15:35.152Z,993.70
2018-02-22T11:16:35.383Z,993.71
2018-02-22T11:17:35.611Z,993.62
2018-02-22T11:18:35.841Z,993.69
2018-02-22T11:19:36.076Z,993.66
2018-02-22T11:20:36.297Z,993.64
2018-02-22T11:21:36.528Z,993.68
2018-02-22T11:22:36.766Z,993.60
2018-02-22T11:23:36.974Z,993.67
2018-02-22T11:24:37.213Z,993.75
2018-02-22T11:25:37.473Z,993.63
2018-02-22T11:26:37.702Z,993.66
2018-02-22T11:27:37.941Z,993.62
2018-02-22T11:28:38.161Z,993.60
2018-02-22T11:29:38.392Z,993.58
2018-02-22T11:30:38.615Z,993.59
2018-02-22T11:31:38.843Z,993.54
2018-02-22T11:32:39.073Z,993.67
2018-02-22T11:33:39.304Z,993.59
2018-02-22T11:34:39.535Z,993.67
2018-02-22T11:35:39.765Z,993.64
2018-02-22T11:36:39.993Z,993.59
2018-02-22T11:37:40.219Z,993.62
2018-02-22T11:38:40.448Z,993.65
2018-02-22T11:39:40.679Z,993.68
2018-02-22T11:40:40.910Z,993.59
2018-02-22T11:41:41.146Z,993.69
2018-02-22T11:42:41.363Z,993.67
2018-02-22T11:43:42.296Z,993.66
2018-02-22T11:44:41.809Z,993.70
2018-02-22T11:45:42.054Z,993.72
2018-02-22T11:46:42.281Z,993.63
2018-02-22T11:47:42.512Z,993.69
2018-02-22T11:48:42.744Z,993.58
2018-02-22T11:49:42.968Z,993.66
2018-02-22T11:50:43.197Z,993.49
2018-02-22T11:51:43.426Z,993.48
2018-02-22T11:52:43.649Z,993.52
2018-02-22T11:53:43.891Z,993.50
2018-02-22T11:54:44.115Z,993.52
2018-02-22T11:55:44.366Z,993.50
2018-02-22T11:56:44.578Z,993.52
2018-02-22T11:57:44.810Z,993.49
2018-02-22T11:58:45.040Z,993.46
2018-02-22T11:59:45.269Z,993.43
2018-02-22T12:00:45.500Z,993.42
2018-02-22T12:01:45.743Z,993.40
2018-02-22T12:02:45.958Z,993.36
2018-02-22T12:03:46.187Z,993.44
2018-02-22T12:04:46.422Z,993.31
2018-02-22T12:05:46.637Z,993.29
2018-02-22T12:06:46.871Z,993.28
2018-02-22T12:07:47.100Z,993.36
2018-02-22T12:08:47.331Z,993.33
2018-02-22T12:09:47.561Z,993.30
2018-02-22T12:10:47.781Z,993.37
2018-02-22T12:11:48.015Z,993.27
2018-02-22T12:12:48.235Z,993.35
2018-02-22T12:13:48.465Z,993.32
2018-02-22T12:14:48.699Z,993.39
2018-02-22T12:15:48.925Z,993.35
2018-02-22T12:16:49.156Z,993.38
2018-02-22T12:17:49.389Z,993.41
2018-02-22T12:18:49.616Z,993.46
2018-02-22T12:19:49.847Z,993.38
2018-02-22T12:20:50.077Z,993.41
2018-02-22T12:21:50.305Z,993.35
2018-02-22T12:22:50.534Z,993.36
2018-02-22T12:23:50.767Z,993.33
2018-02-22T12:24:50.990Z,993.33
2018-02-22T12:25:51.225Z,993.29
2018-02-22T12:26:51.451Z,993.32
2018-02-22T12:27:51.679Z,993.26
2018-02-22T12:28:51.911Z,993.26
2018-02-22T12:29:52.140Z,993.29
2018-02-22T12:30:52.372Z,993.26
2018-02-22T12:31:52.592Z,993.23
2018-02-22T12:32:52.826Z,993.21
2018-02-22T12:33:53.059Z,993.20
2018-02-22T12:34:53.293Z,993.21
2018-02-22T12:35:53.515Z,993.15
2018-02-22T12:36:53.747Z,993.27